Time;durP1;ratioP1;P1;durP2;ratioP2;P2;SDS_P1;SDS_P2;PMS_P1;PMS_P2;Temp;Humidity;BMP_temperature;BMP_pressure;BME280_temperature;BME280_humidity;BME280_pressure;Samples;Min_cycle;Max_cycle;Signal;HPM_P1;HPM_P2
2022/12/20 00:00:50;;;;;;;;;;;;;;;4.08;75.02;98873.72;7389406;19;19925;-72
2022/12/20 00:03:17;;;;;;;;;;;;;;;4.17;74.24;98873.09;7391934;19;19922;-72
2022/12/20 00:05:43;;;;;;;;;;;;;;;4.06;74.61;98869.53;7388183;19;19915;-71
2022/12/20 00:08:10;;;;;;;;;;;;;;;4.01;75.03;98864.59;7389047;19;19929;-71
2022/12/20 00:10:37;;;;;;;;;;;;;;;4.01;74.51;98861.16;7387453;19;19946;-72
2022/12/20 00:13:04;;;;;;;;;;;;;;;4.05;74.82;98849.50;7386807;19;19919;-72
2022/12/20 00:15:31;;;;;;;;;;;;;;;4.09;74.69;98854.44;7381741;19;20209;-72
2022/12/20 00:17:57;;;;;;;;;;;;;;;4.01;74.93;98853.28;7383906;19;20347;-72
2022/12/20 00:20:24;;;;;;;;;;;;;;;4.02;74.89;98852.34;7385162;19;19915;-72
2022/12/20 00:22:51;;;;;;;;;;;;;;;3.86;75.42;98840.25;7385437;19;20340;-73
2022/12/20 00:25:19;;;;;;;;;;;;;;;3.94;75.18;98835.34;7382882;19;19947;-73
2022/12/20 00:27:46;;;;;;;;;;;;;;;3.92;75.13;98839.88;7387091;19;20377;-72
2022/12/20 00:30:13;;;;;;;;;;;;;;;3.98;74.93;98838.63;7387283;19;20362;-73
2022/12/20 00:32:40;;;;;;;;;;;;;;;3.93;75.15;98823.22;7387111;19;19923;-73
2022/12/20 00:35:06;;;;;;;;;;;;;;;3.92;75.14;98820.69;7380215;19;19914;-74
2022/12/20 00:37:33;;;;;;;;;;;;;;;3.94;75.08;98814.41;7383059;19;19915;-73
2022/12/20 00:39:59;;;;;;;;;;;;;;;4.10;74.42;98818.63;7385789;19;20416;-73
2022/12/20 00:42:26;;;;;;;;;;;;;;;4.00;74.51;98822.78;7385761;19;19939;-73
2022/12/20 00:44:52;;;;;;;;;;;;;;;3.97;74.50;98816.00;7382827;19;19943;-74
2022/12/20 00:47:20;;;;;;;;;;;;;;;4.02;74.34;98828.78;7387086;19;19918;-73
2022/12/20 00:49:46;;;;;;;;;;;;;;;3.97;74.09;98816.81;7384263;19;19911;-73
2022/12/20 00:52:13;;;;;;;;;;;;;;;3.79;75.09;98818.09;7380830;19;19922;-73
2022/12/20 00:54:39;;;;;;;;;;;;;;;3.85;75.67;98830.75;7384445;19;19940;-73
2022/12/20 00:57:06;;;;;;;;;;;;;;;3.85;75.71;98830.75;7382881;19;19986;-73
2022/12/20 00:59:32;;;;;;;;;;;;;;;3.97;75.49;98823.84;7385324;19;19919;-73
2022/12/20 01:01:59;;;;;;;;;;;;;;;4.12;74.66;98843.75;7387440;19;19918;-73
2022/12/20 01:04:26;;;;;;;;;;;;;;;4.10;74.22;98836.94;7382165;19;19955;-74
2022/12/20 01:06:52;;;;;;;;;;;;;;;4.01;74.19;98806.16;7380142;19;19923;-74
2022/12/20 01:09:19;;;;;;;;;;;;;;;3.72;75.84;98804.56;7378951;19;19939;-73
2022/12/20 01:11:45;;;;;;;;;;;;;;;3.87;75.88;98815.78;7385901;19;20271;-73
2022/12/20 01:14:13;;;;;;;;;;;;;;;3.82;76.08;98825.72;7374395;19;19922;-73
2022/12/20 01:16:41;;;;;;;;;;;;;;;3.99;75.50;98826.38;7382597;19;20306;-73
2022/12/20 01:19:09;;;;;;;;;;;;;;;4.14;74.56;98831.41;7383678;19;19921;-74
2022/12/20 01:21:35;;;;;;;;;;;;;;;4.02;74.57;98834.84;7380853;19;19950;-73
2022/12/20 01:24:02;;;;;;;;;;;;;;;3.96;74.97;98838.72;7385351;19;20443;-72
2022/12/20 01:26:29;;;;;;;;;;;;;;;4.04;74.70;98835.59;7384678;19;19922;-72
2022/12/20 01:28:57;;;;;;;;;;;;;;;3.99;74.89;98844.69;7391873;19;19923;-73
2022/12/20 01:31:23;;;;;;;;;;;;;;;3.85;75.55;98850.84;7392142;19;19918;-73
2022/12/20 01:33:51;;;;;;;;;;;;;;;3.93;75.31;98844.16;7391577;19;19923;-73
2022/12/20 01:36:28;;;;;;;;;;;;;;;3.86;75.20;98839.44;7388372;19;20336;-73
2022/12/20 01:38:59;;;;;;;;;;;;;;;3.88;75.19;98834.94;7390381;19;19915;-74
2022/12/20 01:41:26;;;;;;;;;;;;;;;3.74;76.19;98822.78;7387761;19;19918;-73
2022/12/20 01:44:00;;;;;;;;;;;;;;;3.83;75.92;98818.69;7387114;19;20338;-73
2022/12/20 01:46:28;;;;;;;;;;;;;;;3.92;75.84;98816.31;7386445;19;19918;-73
2022/12/20 01:48:55;;;;;;;;;;;;;;;3.91;75.71;98822.47;7393650;19;19914;-73
2022/12/20 01:51:22;;;;;;;;;;;;;;;3.86;76.01;98816.72;7393760;19;19915;-74
2022/12/20 01:53:49;;;;;;;;;;;;;;;4.07;75.21;98805.75;7387827;19;19947;-73
2022/12/20 01:56:16;;;;;;;;;;;;;;;4.06;75.25;98811.94;7386277;19;20490;-73
2022/12/20 01:58:43;;;;;;;;;;;;;;;4.00;75.29;98810.53;7385769;19;19922;-73
2022/12/20 02:01:10;;;;;;;;;;;;;;;3.94;75.70;98808.34;7386620;19;19918;-73
2022/12/20 02:03:36;;;;;;;;;;;;;;;4.13;75.13;98808.78;7389407;19;19930;-73
2022/12/20 02:06:12;;;;;;;;;;;;;;;4.13;74.86;98814.03;7385558;19;19923;-74
2022/12/20 02:08:39;;;;;;;;;;;;;;;4.11;74.55;98812.47;7388873;19;19922;-73
2022/12/20 02:11:06;;;;;;;;;;;;;;;3.98;74.81;98815.06;7389080;19;19922;-73
2022/12/20 02:13:48;;;;;;;;;;;;;;;4.07;74.35;98779.56;7386185;19;20501;-73
2022/12/20 02:16:16;;;;;;;;;;;;;;;3.88;75.50;98793.91;7381529;19;19975;-74
2022/12/20 02:18:46;;;;;;;;;;;;;;;4.04;75.54;98792.88;7389072;19;19926;-74
2022/12/20 02:21:12;;;;;;;;;;;;;;;4.27;74.22;98791.31;7389067;19;19923;-73
2022/12/20 02:23:58;;;;;;;;;;;;;;;4.20;73.90;98783.00;7391995;19;19919;-74
2022/12/20 02:26:24;;;;;;;;;;;;;;;4.10;74.81;98779.34;7385099;19;19994;-74
2022/12/20 02:29:10;;;;;;;;;;;;;;;4.16;74.66;98776.28;7389420;19;19923;-74
2022/12/20 02:31:38;;;;;;;;;;;;;;;4.19;74.63;98778.72;7387367;19;19915;-74
2022/12/20 02:34:04;;;;;;;;;;;;;;;4.24;74.10;98774.00;7381679;19;19942;-75
2022/12/20 02:36:31;;;;;;;;;;;;;;;4.15;74.63;98785.09;7387173;19;20347;-75
2022/12/20 02:38:57;;;;;;;;;;;;;;;3.98;75.14;98773.19;7390006;19;20265;-74
2022/12/20 02:41:24;;;;;;;;;;;;;;;4.00;75.08;98765.19;7386535;19;19943;-75
2022/12/20 02:46:37;;;;;;;;;;;;;;;3.96;75.18;98775.06;7386936;19;19919;-75
2022/12/20 02:49:07;;;;;;;;;;;;;;;4.01;74.91;98772.13;7383688;19;19921;-75
2022/12/20 02:51:34;;;;;;;;;;;;;;;4.07;74.07;98761.22;7385801;19;19945;-76
2022/12/20 02:54:00;;;;;;;;;;;;;;;3.88;74.22;98765.09;7387347;19;19935;-76
2022/12/20 02:56:30;;;;;;;;;;;;;;;3.79;74.84;98763.13;7386093;19;19929;-76
2022/12/20 02:59:06;;;;;;;;;;;;;;;3.77;75.17;98767.63;7385205;19;20352;-75
2022/12/20 03:01:35;;;;;;;;;;;;;;;3.82;75.35;98762.91;7388137;19;19915;-75
2022/12/20 03:04:02;;;;;;;;;;;;;;;3.85;74.48;98756.63;7385087;19;19923;-76
2022/12/20 03:06:29;;;;;;;;;;;;;;;3.79;74.89;98752.66;7379283;19;20355;-76
2022/12/20 03:08:56;;;;;;;;;;;;;;;3.79;75.87;98752.66;7386760;19;19930;-76
2022/12/20 03:11:26;;;;;;;;;;;;;;;3.79;76.01;98749.19;7381961;19;19919;-76
2022/12/20 03:13:52;;;;;;;;;;;;;;;3.87;75.49;98750.34;7382892;19;19943;-76
2022/12/20 03:16:19;;;;;;;;;;;;;;;3.95;75.50;98747.22;7382614;19;20015;-76
2022/12/20 03:18:46;;;;;;;;;;;;;;;3.88;75.32;98740.72;7387389;19;19918;-76
2022/12/20 03:21:13;;;;;;;;;;;;;;;3.91;75.44;98743.94;7385235;19;19941;-76
2022/12/20 03:23:40;;;;;;;;;;;;;;;3.88;75.93;98740.72;7382471;19;19990;-75
2022/12/20 03:26:06;;;;;;;;;;;;;;;3.87;76.10;98746.88;7382976;19;19939;-76
2022/12/20 03:28:38;;;;;;;;;;;;;;;3.99;75.82;98746.03;7387731;19;19919;-75
2022/12/20 03:31:06;;;;;;;;;;;;;;;3.80;76.00;98738.63;7387830;19;19918;-76
2022/12/20 03:33:41;;;;;;;;;;;;;;;4.03;75.47;98749.28;7388847;19;20245;-75
2022/12/20 03:36:07;;;;;;;;;;;;;;;3.93;75.79;98741.25;7388350;19;19919;-76
2022/12/20 03:38:35;;;;;;;;;;;;;;;4.03;75.40;98738.81;7382619;19;19927;-76
2022/12/20 03:41:03;;;;;;;;;;;;;;;4.06;75.11;98722.91;7384024;19;19919;-76
2022/12/20 03:43:30;;;;;;;;;;;;;;;4.03;75.39;98736.19;7387792;19;19919;-76
2022/12/20 03:45:57;;;;;;;;;;;;;;;4.11;75.16;98733.91;7383944;19;20404;-76
2022/12/20 03:48:24;;;;;;;;;;;;;;;3.99;75.53;98739.97;7386761;19;19919;-76
2022/12/20 03:50:51;;;;;;;;;;;;;;;4.14;75.23;98729.28;7386490;19;19926;-76
2022/12/20 03:53:17;;;;;;;;;;;;;;;4.21;74.93;98721.81;7386993;19;19927;-77
2022/12/20 03:55:44;;;;;;;;;;;;;;;4.18;74.79;98727.28;7379319;19;19918;-77
2022/12/20 03:58:12;;;;;;;;;;;;;;;4.11;74.88;98729.50;7379415;19;19925;-76
2022/12/20 04:00:38;;;;;;;;;;;;;;;4.20;74.83;98721.94;7386462;19;19922;-76
2022/12/20 04:03:25;;;;;;;;;;;;;;;4.23;74.52;98730.41;7386735;19;19929;-77
2022/12/20 04:05:52;;;;;;;;;;;;;;;4.25;74.29;98728.53;7380712;19;19930;-77
2022/12/20 04:08:20;;;;;;;;;;;;;;;4.21;74.28;98727.06;7385562;19;20372;-76
2022/12/20 04:13:35;;;;;;;;;;;;;;;3.94;75.16;98719.34;7378853;19;19918;-76
2022/12/20 04:16:02;;;;;;;;;;;;;;;4.05;75.19;98711.59;7381583;19;19922;-76
2022/12/20 04:18:31;;;;;;;;;;;;;;;4.16;74.75;98702.97;7385820;19;20010;-76
2022/12/20 04:20:59;;;;;;;;;;;;;;;4.22;74.40;98707.81;7383862;19;19926;-76
2022/12/20 04:23:28;;;;;;;;;;;;;;;4.36;74.00;98699.81;7386233;19;19975;-76
2022/12/20 04:25:55;;;;;;;;;;;;;;;4.10;74.08;98691.16;7384231;19;20538;-77
2022/12/20 04:28:21;;;;;;;;;;;;;;;4.12;74.57;98701.53;7377069;19;19923;-76
2022/12/20 04:30:49;;;;;;;;;;;;;;;4.06;74.60;98699.34;7381130;19;19944;-76
2022/12/20 04:33:22;;;;;;;;;;;;;;;4.06;75.09;98702.81;7387001;19;19930;-76
2022/12/20 04:35:48;;;;;;;;;;;;;;;4.15;74.87;98698.69;7380780;19;20371;-76
2022/12/20 04:38:15;;;;;;;;;;;;;;;4.22;74.22;98707.81;7384002;19;19947;-76
2022/12/20 04:40:43;;;;;;;;;;;;;;;4.19;73.83;98715.88;7384176;19;19964;-77
2022/12/20 04:43:09;;;;;;;;;;;;;;;4.13;73.75;98714.53;7386359;19;19919;-76
2022/12/20 04:45:37;;;;;;;;;;;;;;;4.11;73.65;98707.72;7374748;19;19922;-76
2022/12/20 04:48:04;;;;;;;;;;;;;;;4.05;73.92;98689.81;7384588;19;20276;-77
2022/12/20 04:50:50;;;;;;;;;;;;;;;4.04;73.82;98690.75;7385398;19;20446;-77
2022/12/20 04:56:02;;;;;;;;;;;;;;;3.87;74.02;98677.06;7379274;19;19918;-77
2022/12/20 04:58:29;;;;;;;;;;;;;;;3.68;74.75;98682.69;7382309;19;19952;-77
2022/12/20 05:00:58;;;;;;;;;;;;;;;3.76;74.75;98686.59;7382345;19;19915;-77
2022/12/20 05:03:28;;;;;;;;;;;;;;;3.76;75.34;98686.59;7379042;19;19915;-78
2022/12/20 05:05:55;;;;;;;;;;;;;;;3.69;76.04;98675.72;7379250;19;20532;-77
2022/12/20 05:08:22;;;;;;;;;;;;;;;3.82;76.07;98673.06;7379389;19;20375;-77
2022/12/20 05:10:50;;;;;;;;;;;;;;;3.82;76.16;98673.94;7380389;19;19922;-78
2022/12/20 05:13:17;;;;;;;;;;;;;;;3.76;76.61;98683.97;7384197;19;20475;-79
2022/12/20 05:15:45;;;;;;;;;;;;;;;3.84;76.26;98668.56;7379774;19;20259;-78
2022/12/20 05:18:11;;;;;;;;;;;;;;;3.90;75.64;98669.00;7380597;19;19943;-78
2022/12/20 05:26:16;;;;;;;;;;;;;;;3.94;75.34;98670.44;7379062;19;20343;-78
2022/12/20 05:26:31;;;;;;;;;;;;;;;3.91;74.94;98669.81;7381924;19;19977;-78
2022/12/20 05:28:59;;;;;;;;;;;;;;;3.83;75.28;98665.13;7384661;19;19930;-79
2022/12/20 05:31:26;;;;;;;;;;;;;;;3.85;75.79;98655.41;7381735;19;20283;-78
2022/12/20 05:33:53;;;;;;;;;;;;;;;3.92;75.62;98642.69;7378320;19;19922;-78
2022/12/20 05:36:21;;;;;;;;;;;;;;;4.05;75.73;98640.88;7377276;19;19923;-79
2022/12/20 05:38:48;;;;;;;;;;;;;;;4.18;75.63;98648.72;7382859;19;19918;-80
2022/12/20 05:41:17;;;;;;;;;;;;;;;4.12;75.54;98654.41;7381125;19;19922;-79
2022/12/20 05:43:47;;;;;;;;;;;;;;;4.14;75.74;98652.53;7379901;19;20376;-79
2022/12/20 05:46:14;;;;;;;;;;;;;;;4.24;74.93;98647.44;7381605;19;20280;-79
2022/12/20 05:48:52;;;;;;;;;;;;;;;4.23;75.20;98662.31;7380486;19;19939;-79
2022/12/20 05:51:18;;;;;;;;;;;;;;;4.33;75.05;98655.50;7378820;19;19923;-79
2022/12/20 05:53:55;;;;;;;;;;;;;;;4.18;75.11;98639.06;7373213;19;19919;-79
2022/12/20 05:56:36;;;;;;;;;;;;;;;4.16;75.11;98627.03;7382407;19;19937;-78
2022/12/20 05:59:08;;;;;;;;;;;;;;;4.16;74.90;98622.66;7376634;19;20334;-77
2022/12/20 06:01:35;;;;;;;;;;;;;;;4.10;75.55;98623.06;7383200;19;19923;-78
2022/12/20 06:04:03;;;;;;;;;;;;;;;4.15;75.39;98622.75;7380000;19;19926;-81
2022/12/20 06:06:31;;;;;;;;;;;;;;;4.20;75.34;98625.88;7380032;19;19969;-81
2022/12/20 06:08:58;;;;;;;;;;;;;;;4.30;74.96;98618.22;7381406;19;19923;-80
2022/12/20 06:11:47;;;;;;;;;;;;;;;4.50;74.17;98633.34;7390441;19;20252;-80
2022/12/20 06:14:14;;;;;;;;;;;;;;;4.48;73.90;98637.03;7387747;19;19915;-81
2022/12/20 06:16:46;;;;;;;;;;;;;;;4.45;74.07;98637.22;7390560;19;19982;-81
2022/12/20 06:19:15;;;;;;;;;;;;;;;4.40;74.34;98632.34;7390323;19;20020;-81
2022/12/20 06:21:48;;;;;;;;;;;;;;;4.46;74.47;98638.91;7390536;19;19926;-80
2022/12/20 06:24:17;;;;;;;;;;;;;;;4.54;74.11;98644.44;7389356;19;19970;-81
2022/12/20 06:26:44;;;;;;;;;;;;;;;4.45;73.98;98638.06;7387505;19;19923;-82
2022/12/20 06:29:13;;;;;;;;;;;;;;;4.47;74.13;98637.94;7389383;19;19919;-82
2022/12/20 06:31:44;;;;;;;;;;;;;;;4.52;74.10;98639.28;7391203;19;20134;-82
2022/12/20 06:34:11;;;;;;;;;;;;;;;4.52;73.74;98631.44;7391478;19;19990;-82
2022/12/20 06:36:40;;;;;;;;;;;;;;;4.43;73.93;98628.66;7389734;19;20679;-82
2022/12/20 06:39:12;;;;;;;;;;;;;;;4.48;73.85;98642.25;7389723;19;19915;-82
2022/12/20 06:41:46;;;;;;;;;;;;;;;4.42;73.96;98650.53;7387944;19;19925;-81
2022/12/20 06:44:12;;;;;;;;;;;;;;;4.38;74.07;98648.16;7388376;19;19919;-81
2022/12/20 06:46:39;;;;;;;;;;;;;;;4.47;73.84;98651.03;7390898;19;19911;-82
2022/12/20 06:49:06;;;;;;;;;;;;;;;4.43;74.18;98654.84;7390422;19;19960;-82
2022/12/20 06:51:32;;;;;;;;;;;;;;;4.48;73.94;98658.81;7390793;19;19919;-83
2022/12/20 06:53:59;;;;;;;;;;;;;;;4.47;74.33;98649.25;7388692;19;19915;-83
2022/12/20 06:56:29;;;;;;;;;;;;;;;4.55;74.13;98651.31;7387602;19;19982;-83
2022/12/20 06:59:03;;;;;;;;;;;;;;;4.37;74.55;98653.47;7386469;19;20320;-84
2022/12/20 07:01:30;;;;;;;;;;;;;;;4.40;75.05;98645.44;7388249;19;19918;-84
2022/12/20 07:03:57;;;;;;;;;;;;;;;4.51;75.32;98649.91;7390646;19;19973;-83
2022/12/20 07:06:23;;;;;;;;;;;;;;;4.77;74.64;98646.22;7392053;19;19926;-84
2022/12/20 07:08:49;;;;;;;;;;;;;;;4.54;74.91;98641.81;7391907;19;19924;-83
2022/12/20 07:11:17;;;;;;;;;;;;;;;4.51;75.04;98634.19;7388992;19;19918;-82
2022/12/20 07:13:43;;;;;;;;;;;;;;;4.61;74.88;98649.13;7390357;19;20297;-82
2022/12/20 07:16:10;;;;;;;;;;;;;;;4.43;74.77;98650.44;7385913;19;19911;-82
2022/12/20 07:18:37;;;;;;;;;;;;;;;4.42;75.06;98643.50;7388119;19;19934;-83
2022/12/20 07:21:04;;;;;;;;;;;;;;;4.39;75.10;98644.56;7389279;19;19946;-84
2022/12/20 07:23:30;;;;;;;;;;;;;;;4.29;75.28;98646.19;7390246;19;19925;-82
2022/12/20 07:25:58;;;;;;;;;;;;;;;4.26;75.57;98649.00;7387401;19;19962;-83
2022/12/20 07:28:24;;;;;;;;;;;;;;;4.19;75.85;98655.66;7387622;19;20270;-84
2022/12/20 07:30:51;;;;;;;;;;;;;;;4.16;75.92;98645.38;7390193;19;19959;-84
2022/12/20 07:33:18;;;;;;;;;;;;;;;4.03;76.41;98641.94;7387044;19;19925;-84
2022/12/20 07:35:45;;;;;;;;;;;;;;;4.31;76.03;98646.06;7385374;19;19923;-84
2022/12/20 07:38:19;;;;;;;;;;;;;;;4.40;75.47;98643.63;7390780;19;20351;-84
2022/12/20 07:40:46;;;;;;;;;;;;;;;4.54;75.46;98639.19;7387794;19;19919;-85
2022/12/20 07:43:12;;;;;;;;;;;;;;;4.63;75.18;98643.75;7386958;19;19919;-84
2022/12/20 07:45:39;;;;;;;;;;;;;;;4.64;75.45;98647.22;7388501;19;19919;-84
2022/12/20 07:48:05;;;;;;;;;;;;;;;4.98;74.55;98643.78;7387252;19;19915;-84
2022/12/20 07:50:40;;;;;;;;;;;;;;;4.97;73.93;98636.03;7382372;19;19978;-84
2022/12/20 07:53:07;;;;;;;;;;;;;;;4.91;73.82;98626.84;7387553;19;19927;-85
2022/12/20 07:55:35;;;;;;;;;;;;;;;4.95;74.03;98623.06;7387762;19;19947;-84
2022/12/20 07:58:04;;;;;;;;;;;;;;;5.06;73.60;98632.72;7381903;19;19978;-85
2022/12/20 08:00:30;;;;;;;;;;;;;;;5.07;73.62;98627.34;7385343;19;20376;-83
2022/12/20 08:03:01;;;;;;;;;;;;;;;5.18;72.90;98631.78;7388582;19;19919;-83
2022/12/20 08:05:31;;;;;;;;;;;;;;;5.13;72.84;98639.16;7380915;19;19914;-83
2022/12/20 08:08:01;;;;;;;;;;;;;;;5.17;72.62;98639.78;7382959;19;19923;-83
2022/12/20 08:10:29;;;;;;;;;;;;;;;5.18;72.37;98642.28;7389404;19;20357;-82
2022/12/20 08:12:58;;;;;;;;;;;;;;;5.04;72.83;98632.00;7386613;19;19923;-83
2022/12/20 08:15:24;;;;;;;;;;;;;;;4.94;73.58;98636.25;7387150;19;19919;-83
2022/12/20 08:17:51;;;;;;;;;;;;;;;5.08;73.16;98641.28;7383885;19;19932;-84
2022/12/20 08:20:17;;;;;;;;;;;;;;;5.16;73.24;98635.47;7388824;19;22307;-82
2022/12/20 08:22:44;;;;;;;;;;;;;;;5.16;73.32;98635.47;7378804;19;19930;-82
2022/12/20 08:25:10;;;;;;;;;;;;;;;5.30;72.94;98637.09;7384448;19;19919;-82
2022/12/20 08:27:37;;;;;;;;;;;;;;;5.49;72.40;98625.06;7387694;19;19918;-83
2022/12/20 08:30:04;;;;;;;;;;;;;;;5.42;72.41;98623.03;7387712;19;19930;-82
2022/12/20 08:32:31;;;;;;;;;;;;;;;5.37;72.91;98622.53;7388794;19;19918;-82
2022/12/20 08:34:57;;;;;;;;;;;;;;;5.38;73.24;98614.56;7387608;19;19919;-82
2022/12/20 08:37:24;;;;;;;;;;;;;;;5.64;72.36;98606.47;7383133;19;19919;-83
2022/12/20 08:39:50;;;;;;;;;;;;;;;5.66;71.97;98592.28;7383528;19;21183;-82
2022/12/20 08:42:17;;;;;;;;;;;;;;;5.73;71.79;98595.25;7384534;19;19914;-82
2022/12/20 08:44:43;;;;;;;;;;;;;;;5.70;71.69;98598.94;7384624;19;19919;-82
2022/12/20 08:47:10;;;;;;;;;;;;;;;5.90;71.25;98599.19;7386358;19;19947;-82
2022/12/20 08:49:37;;;;;;;;;;;;;;;5.90;71.38;98588.69;7387945;19;19943;-82
2022/12/20 08:52:12;;;;;;;;;;;;;;;5.84;71.50;98591.78;7386404;19;20275;-81
2022/12/20 08:54:39;;;;;;;;;;;;;;;6.01;70.80;98591.34;7384759;19;20498;-81
2022/12/20 08:57:05;;;;;;;;;;;;;;;6.09;70.75;98588.09;7383629;19;19922;-82
2022/12/20 08:59:32;;;;;;;;;;;;;;;5.98;71.11;98586.31;7383984;19;20273;-82
2022/12/20 09:01:58;;;;;;;;;;;;;;;6.15;70.60;98580.56;7386301;19;19923;-82
2022/12/20 09:04:25;;;;;;;;;;;;;;;6.17;70.68;98576.97;7385664;19;19930;-82
2022/12/20 09:06:51;;;;;;;;;;;;;;;6.29;70.21;98575.97;7387757;19;20339;-82
2022/12/20 09:09:18;;;;;;;;;;;;;;;6.25;70.10;98570.16;7385546;19;19943;-81
2022/12/20 09:11:45;;;;;;;;;;;;;;;6.31;69.45;98577.53;7383384;19;19927;-81
2022/12/20 09:14:11;;;;;;;;;;;;;;;6.30;69.40;98582.91;7381681;19;19959;-80
2022/12/20 09:16:38;;;;;;;;;;;;;;;6.03;69.81;98584.19;7385141;19;19990;-81
2022/12/20 09:19:04;;;;;;;;;;;;;;;5.98;70.48;98581.06;7386979;19;19922;-81
2022/12/20 09:21:32;;;;;;;;;;;;;;;6.03;70.33;98578.06;7386008;19;19923;-81
2022/12/20 09:23:59;;;;;;;;;;;;;;;6.03;70.55;98573.66;7386317;19;19914;-81
2022/12/20 09:26:26;;;;;;;;;;;;;;;6.09;71.00;98572.34;7387619;19;19931;-81
2022/12/20 09:28:52;;;;;;;;;;;;;;;6.05;71.26;98571.72;7383959;19;19923;-81
2022/12/20 09:31:20;;;;;;;;;;;;;;;5.99;71.42;98574.84;7381833;19;19919;-81
2022/12/20 09:33:47;;;;;;;;;;;;;;;6.05;71.44;98573.53;7384638;19;20244;-81
2022/12/20 09:36:14;;;;;;;;;;;;;;;6.16;71.59;98570.88;7385265;19;19943;-81
2022/12/20 09:38:41;;;;;;;;;;;;;;;6.24;71.88;98575.50;7385328;19;19927;-80
2022/12/20 09:41:25;;;;;;;;;;;;;;;6.31;71.54;98574.06;7384933;19;19929;-80
2022/12/20 09:43:52;;;;;;;;;;;;;;;6.32;71.44;98568.69;7386829;19;19910;-80
2022/12/20 09:46:18;;;;;;;;;;;;;;;6.37;71.15;98570.94;7388946;19;19927;-80
2022/12/20 09:48:45;;;;;;;;;;;;;;;6.41;70.74;98564.47;7389568;19;19914;-78
2022/12/20 09:51:17;;;;;;;;;;;;;;;6.34;70.94;98550.16;7393143;19;19923;-79
2022/12/20 09:53:56;;;;;;;;;;;;;;;6.25;71.44;98556.19;7391741;19;19926;-80
2022/12/20 09:56:32;;;;;;;;;;;;;;;6.28;71.32;98555.94;7392659;19;20273;-80
2022/12/20 09:59:00;;;;;;;;;;;;;;;6.37;71.08;98550.78;7395386;19;19919;-79
2022/12/20 10:01:27;;;;;;;;;;;;;;;6.41;70.97;98540.84;7391313;19;19918;-79
2022/12/20 10:04:11;;;;;;;;;;;;;;;6.40;70.89;98539.19;7388935;19;19929;-79
2022/12/20 10:06:38;;;;;;;;;;;;;;;6.59;70.88;98544.59;7392017;19;20030;-79
2022/12/20 10:09:09;;;;;;;;;;;;;;;6.67;70.54;98538.69;7392434;19;20455;-79
2022/12/20 10:11:39;;;;;;;;;;;;;;;6.77;70.57;98529.09;7388602;19;19926;-79
2022/12/20 10:14:27;;;;;;;;;;;;;;;6.73;70.77;98524.19;7388563;19;19994;-80
2022/12/20 10:17:03;;;;;;;;;;;;;;;6.80;70.31;98535.88;7393469;19;20418;-80
2022/12/20 10:19:35;;;;;;;;;;;;;;;6.78;70.26;98522.84;7386679;19;20300;-80
2022/12/20 10:22:13;;;;;;;;;;;;;;;6.81;69.94;98525.22;7390747;19;19918;-80
2022/12/20 10:24:40;;;;;;;;;;;;;;;6.83;69.85;98530.38;7390577;19;19956;-79
2022/12/20 10:27:15;;;;;;;;;;;;;;;6.79;69.96;98534.19;7393489;19;19922;-79
2022/12/20 10:29:42;;;;;;;;;;;;;;;6.75;70.28;98525.75;7388855;19;19922;-79
2022/12/20 10:32:11;;;;;;;;;;;;;;;6.84;70.09;98526.75;7394719;19;19938;-79
2022/12/20 10:34:39;;;;;;;;;;;;;;;6.74;70.34;98525.84;7389272;19;19918;-79
2022/12/20 10:37:14;;;;;;;;;;;;;;;6.77;70.78;98525.63;7385848;19;19919;-79
2022/12/20 10:39:42;;;;;;;;;;;;;;;6.72;71.08;98519.91;7390593;19;19922;-79
2022/12/20 10:42:27;;;;;;;;;;;;;;;6.78;71.45;98522.03;7391664;19;19953;-80
2022/12/20 10:44:54;;;;;;;;;;;;;;;6.79;70.94;98519.28;7390288;19;20346;-80
2022/12/20 10:47:23;;;;;;;;;;;;;;;6.78;71.88;98511.50;7390212;19;19923;-80
2022/12/20 10:49:50;;;;;;;;;;;;;;;6.80;71.44;98501.69;7392395;19;19939;-79
2022/12/20 10:52:17;;;;;;;;;;;;;;;6.91;71.48;98506.88;7387418;19;19923;-80
2022/12/20 10:54:44;;;;;;;;;;;;;;;6.93;71.17;98504.97;7386140;19;19919;-80
2022/12/20 10:57:21;;;;;;;;;;;;;;;6.92;70.63;98507.72;7386316;19;19922;-79
2022/12/20 10:59:48;;;;;;;;;;;;;;;6.73;71.03;98501.38;7388826;19;19923;-78
2022/12/20 11:02:21;;;;;;;;;;;;;;;6.71;71.34;98495.41;7391068;19;19925;-78
2022/12/20 11:04:58;;;;;;;;;;;;;;;6.78;71.56;98488.66;7388373;19;19956;-78
2022/12/20 11:07:26;;;;;;;;;;;;;;;6.77;71.55;98479.13;7386976;19;20493;-78
2022/12/20 11:09:57;;;;;;;;;;;;;;;6.90;71.51;98485.97;7386560;19;19951;-78
2022/12/20 11:12:23;;;;;;;;;;;;;;;6.87;71.69;98481.78;7389045;19;19922;-79
2022/12/20 11:14:50;;;;;;;;;;;;;;;6.90;72.15;98471.03;7386751;19;19978;-78
2022/12/20 11:17:22;;;;;;;;;;;;;;;7.05;71.72;98476.78;7389426;19;20695;-78
2022/12/20 11:20:08;;;;;;;;;;;;;;;7.23;71.62;98464.66;7389191;19;20275;-77
2022/12/20 11:23:03;;;;;;;;;;;;;;;7.48;71.25;98479.19;7390704;19;19923;-78
2022/12/20 11:25:30;;;;;;;;;;;;;;;7.79;70.21;98465.94;7377857;19;19949;-78
2022/12/20 11:27:56;;;;;;;;;;;;;;;7.85;69.40;98456.69;7387017;19;19926;-78
2022/12/20 11:30:24;;;;;;;;;;;;;;;7.88;69.11;98457.22;7388227;19;20280;-77
2022/12/20 11:33:14;;;;;;;;;;;;;;;7.90;69.77;98457.94;7387358;19;19943;-78
2022/12/20 11:35:53;;;;;;;;;;;;;;;7.86;69.57;98461.81;7387029;19;19915;-77
2022/12/20 11:38:34;;;;;;;;;;;;;;;7.93;68.82;98450.75;7385846;19;19927;-77
2022/12/20 11:41:19;;;;;;;;;;;;;;;8.02;69.14;98458.63;7390467;19;19935;-76
2022/12/20 11:43:50;;;;;;;;;;;;;;;8.03;68.36;98454.19;7387527;19;19918;-77
2022/12/20 11:46:45;;;;;;;;;;;;;;;8.26;67.84;98437.13;7386594;19;19917;-76
2022/12/20 11:49:11;;;;;;;;;;;;;;;8.28;67.34;98440.47;7391431;19;19915;-77
2022/12/20 11:51:42;;;;;;;;;;;;;;;8.28;66.79;98427.28;7393511;19;19922;-76
2022/12/20 11:54:13;;;;;;;;;;;;;;;8.36;66.60;98406.31;7391382;19;19934;-76
2022/12/20 11:56:43;;;;;;;;;;;;;;;8.41;66.04;98405.13;7394710;19;20367;-77
2022/12/20 11:59:19;;;;;;;;;;;;;;;8.31;66.29;98398.00;7399677;19;19940;-76
2022/12/20 12:01:47;;;;;;;;;;;;;;;8.40;66.40;98404.28;7397678;19;19915;-77
2022/12/20 12:04:19;;;;;;;;;;;;;;;8.29;66.57;98402.63;7398951;19;19923;-76
2022/12/20 12:06:51;;;;;;;;;;;;;;;8.04;67.67;98390.81;7396393;19;19918;-76
2022/12/20 12:09:22;;;;;;;;;;;;;;;7.92;67.65;98397.19;7396677;19;19927;-76
2022/12/20 12:11:59;;;;;;;;;;;;;;;8.02;67.20;98411.19;7397874;19;19915;-76
2022/12/20 12:14:42;;;;;;;;;;;;;;;8.16;66.95;98417.84;7395343;19;19915;-78
2022/12/20 12:17:12;;;;;;;;;;;;;;;8.20;66.31;98426.34;7387802;19;19919;-78
2022/12/20 12:19:39;;;;;;;;;;;;;;;8.04;66.73;98418.97;7390710;19;19922;-77
2022/12/20 12:22:08;;;;;;;;;;;;;;;7.89;67.41;98408.84;7386791;19;19955;-77
2022/12/20 12:24:37;;;;;;;;;;;;;;;7.96;67.49;98414.41;7387519;19;19932;-77
2022/12/20 12:27:04;;;;;;;;;;;;;;;7.77;68.07;98396.78;7387579;19;19922;-78
2022/12/20 12:29:36;;;;;;;;;;;;;;;7.75;68.31;98400.53;7385080;19;19922;-77
2022/12/20 12:32:12;;;;;;;;;;;;;;;7.61;69.43;98393.84;7384074;19;19914;-76
2022/12/20 12:34:59;;;;;;;;;;;;;;;7.59;69.54;98380.81;7377292;19;20370;-78
2022/12/20 12:37:26;;;;;;;;;;;;;;;7.89;68.48;98387.75;7372124;19;20429;-78
2022/12/20 12:40:16;;;;;;;;;;;;;;;7.94;68.46;98378.63;7382379;19;19925;-78
2022/12/20 12:42:42;;;;;;;;;;;;;;;8.08;68.14;98363.25;7379568;19;19932;-78
2022/12/20 12:45:18;;;;;;;;;;;;;;;8.12;67.56;98364.59;7384856;19;19923;-78
2022/12/20 12:47:45;;;;;;;;;;;;;;;8.36;67.39;98379.16;7387430;19;19923;-78
2022/12/20 12:50:35;;;;;;;;;;;;;;;8.53;66.83;98383.72;7381914;19;19925;-76
2022/12/20 12:53:06;;;;;;;;;;;;;;;8.60;66.11;98383.97;7383766;19;19940;-76
2022/12/20 12:55:38;;;;;;;;;;;;;;;8.54;66.21;98382.75;7382229;19;19956;-77
2022/12/20 12:58:22;;;;;;;;;;;;;;;8.45;66.40;98378.34;7382744;19;20346;-76
2022/12/20 13:01:12;;;;;;;;;;;;;;;8.38;67.01;98355.28;7387942;19;19970;-77
2022/12/20 13:03:41;;;;;;;;;;;;;;;8.36;66.92;98350.97;7384607;19;20358;-77
2022/12/20 13:06:22;;;;;;;;;;;;;;;8.27;67.22;98330.75;7380689;19;19918;-78
2022/12/20 13:09:09;;;;;;;;;;;;;;;8.18;67.56;98328.13;7385043;19;20346;-78
2022/12/20 13:11:39;;;;;;;;;;;;;;;8.15;67.76;98326.59;7388460;19;19931;-77
2022/12/20 13:14:15;;;;;;;;;;;;;;;8.18;67.84;98321.03;7380064;19;19930;-77
2022/12/20 13:16:49;;;;;;;;;;;;;;;8.32;67.44;98325.03;7386570;19;19914;-78
2022/12/20 13:19:37;;;;;;;;;;;;;;;8.35;67.41;98322.13;7384595;19;19978;-78
2022/12/20 13:22:11;;;;;;;;;;;;;;;8.35;67.67;98324.78;7382752;19;19923;-77